createdAt,value
2019-02-23T00:00:01.114Z,20.71
2019-02-23T00:02:29.505Z,20.69
2019-02-23T00:04:57.908Z,20.68
2019-02-23T00:07:26.298Z,20.65
2019-02-23T00:09:54.742Z,20.67
2019-02-23T00:12:23.127Z,20.70
2019-02-23T00:14:51.522Z,20.68
2019-02-23T00:17:19.974Z,20.69
2019-02-23T00:19:48.371Z,20.69
2019-02-23T00:22:16.812Z,20.66
2019-02-23T00:24:45.218Z,20.66
2019-02-23T00:27:13.607Z,20.63
2019-02-23T00:29:41.995Z,20.57
2019-02-23T00:32:10.475Z,20.57
2019-02-23T00:34:38.863Z,20.60
2019-02-23T00:37:07.325Z,20.58
2019-02-23T00:39:35.726Z,20.60
2019-02-23T00:42:04.162Z,20.59
2019-02-23T00:44:32.566Z,20.59
2019-02-23T00:47:00.992Z,20.59
2019-02-23T00:49:36.239Z,20.60
2019-02-23T00:51:59.481Z,20.59
2019-02-23T00:54:27.884Z,20.60
2019-02-23T00:56:56.278Z,20.59
2019-02-23T00:59:24.662Z,20.59
2019-02-23T01:01:53.034Z,20.58
2019-02-23T01:04:21.440Z,20.56
2019-02-23T01:06:49.816Z,20.53
2019-02-23T01:09:18.214Z,20.52
2019-02-23T01:11:46.658Z,20.54
2019-02-23T01:14:15.056Z,20.55
2019-02-23T01:16:43.445Z,20.53
2019-02-23T01:19:11.840Z,20.50
2019-02-23T01:21:40.275Z,20.48
2019-02-23T01:24:08.658Z,20.48
2019-02-23T01:26:37.039Z,20.48
2019-02-23T01:29:05.433Z,20.50
2019-02-23T01:31:33.887Z,20.49
2019-02-23T01:34:02.261Z,20.47
2019-02-23T01:36:31.280Z,20.46
2019-02-23T01:38:59.595Z,20.46
2019-02-23T01:41:27.980Z,20.43
2019-02-23T01:43:56.356Z,20.46
2019-02-23T01:46:24.748Z,20.46
2019-02-23T01:48:53.114Z,20.44
2019-02-23T01:51:21.504Z,20.44
2019-02-23T01:53:49.883Z,20.40
2019-02-23T01:56:18.407Z,20.42
2019-02-23T01:58:46.786Z,20.38
2019-02-23T02:01:15.175Z,20.39
2019-02-23T02:03:43.625Z,20.42
2019-02-23T02:06:12.089Z,20.41
2019-02-23T02:08:40.791Z,20.39
2019-02-23T02:11:09.188Z,20.37
2019-02-23T02:13:37.562Z,20.40
2019-02-23T02:16:06.088Z,20.39
2019-02-23T02:18:34.512Z,20.38
2019-02-23T02:21:02.895Z,20.34
2019-02-23T02:23:31.725Z,20.35
2019-02-23T02:26:00.099Z,20.33
2019-02-23T02:28:28.489Z,20.31
2019-02-23T02:30:56.876Z,20.31
2019-02-23T02:33:25.261Z,20.31
2019-02-23T02:35:53.649Z,20.27
2019-02-23T02:38:22.037Z,20.29
2019-02-23T02:40:50.428Z,20.29
2019-02-23T02:43:18.796Z,20.27
2019-02-23T02:45:47.180Z,20.27
2019-02-23T02:48:15.555Z,20.27
2019-02-23T02:50:43.934Z,20.28
2019-02-23T02:53:12.311Z,20.26
2019-02-23T02:55:40.695Z,20.22
2019-02-23T02:58:09.071Z,20.20
2019-02-23T03:00:37.470Z,20.18
2019-02-23T03:03:05.847Z,20.21
2019-02-23T03:05:34.228Z,20.21
2019-02-23T03:08:02.603Z,20.22
2019-02-23T03:10:31.785Z,20.20
2019-02-23T03:13:00.169Z,20.18
2019-02-23T03:15:28.562Z,20.20
2019-02-23T03:17:56.935Z,20.20
2019-02-23T03:20:36.309Z,20.20
2019-02-23T03:22:55.465Z,20.19
2019-02-23T03:25:23.833Z,20.21
2019-02-23T03:27:52.220Z,20.19
2019-02-23T03:30:20.636Z,20.18
2019-02-23T03:32:49.050Z,20.16
2019-02-23T03:35:17.457Z,20.18
2019-02-23T03:37:45.902Z,20.18
2019-02-23T03:40:14.307Z,20.15
2019-02-23T03:42:42.677Z,20.12
2019-02-23T03:45:11.059Z,20.14
2019-02-23T03:47:39.461Z,20.13
2019-02-23T03:50:08.346Z,20.12
2019-02-23T03:52:36.733Z,20.12
2019-02-23T03:55:05.390Z,20.16
2019-02-23T03:57:33.793Z,20.13
2019-02-23T04:00:02.278Z,20.14
2019-02-23T04:02:30.668Z,20.11
2019-02-23T04:04:59.065Z,20.09
2019-02-23T04:07:27.449Z,20.09
2019-02-23T04:09:55.856Z,20.06
2019-02-23T04:12:24.256Z,20.03
2019-02-23T04:14:52.744Z,20.05
2019-02-23T04:17:21.144Z,20.00
2019-02-23T04:19:49.519Z,20.00
2019-02-23T04:22:17.972Z,19.96
2019-02-23T04:24:46.354Z,20.00
2019-02-23T04:27:14.755Z,19.99
2019-02-23T04:29:43.139Z,19.91
2019-02-23T04:32:11.518Z,19.96
2019-02-23T04:34:39.891Z,19.98
2019-02-23T04:37:08.342Z,19.98
2019-02-23T04:39:36.724Z,20.00
2019-02-23T04:42:05.111Z,19.96
2019-02-23T04:44:33.491Z,19.97
2019-02-23T04:47:02.420Z,19.95
2019-02-23T04:49:30.812Z,19.90
2019-02-23T04:51:59.224Z,19.94
2019-02-23T04:54:27.845Z,19.96
2019-02-23T04:56:56.236Z,19.96
2019-02-23T04:59:24.610Z,19.98
2019-02-23T05:01:53.017Z,19.96
2019-02-23T05:04:21.423Z,19.98
2019-02-23T05:06:49.808Z,20.00
2019-02-23T05:09:18.191Z,20.00
2019-02-23T05:11:46.582Z,19.98
2019-02-23T05:14:14.956Z,20.00
2019-02-23T05:16:43.335Z,20.00
2019-02-23T05:19:11.804Z,19.99
2019-02-23T05:21:40.178Z,20.00
2019-02-23T05:24:08.566Z,19.99
2019-02-23T05:26:36.942Z,19.99
2019-02-23T05:29:05.348Z,19.96
2019-02-23T05:31:33.705Z,19.95
2019-02-23T05:34:02.821Z,19.97
2019-02-23T05:36:31.190Z,19.96
2019-02-23T05:38:59.581Z,19.97
2019-02-23T05:41:28.014Z,19.97
2019-02-23T05:43:56.394Z,19.98
2019-02-23T05:46:24.772Z,19.96
2019-02-23T05:48:53.150Z,19.94
2019-02-23T05:51:21.527Z,19.93
2019-02-23T05:53:49.914Z,19.92
2019-02-23T05:56:18.289Z,19.90
2019-02-23T05:58:46.850Z,19.92
2019-02-23T06:01:15.230Z,19.93
2019-02-23T06:03:43.618Z,19.96
2019-02-23T06:06:11.994Z,19.94
2019-02-23T06:08:40.381Z,19.94
2019-02-23T06:11:08.759Z,19.95
2019-02-23T06:13:37.140Z,19.94
2019-02-23T06:16:05.636Z,19.95
2019-02-23T06:18:34.007Z,19.96
2019-02-23T06:21:03.147Z,19.95
2019-02-23T06:23:31.522Z,19.95
2019-02-23T06:25:59.965Z,19.95
2019-02-23T06:28:28.341Z,19.95
2019-02-23T06:30:56.717Z,19.95
2019-02-23T06:33:25.099Z,19.94
2019-02-23T06:35:53.484Z,19.93
2019-02-23T06:38:21.955Z,19.94
2019-02-23T06:40:53.061Z,19.93
2019-02-23T06:43:21.465Z,19.94
2019-02-23T06:45:49.863Z,19.93
2019-02-23T06:48:19.953Z,19.92
2019-02-23T06:50:48.345Z,19.91
2019-02-23T06:53:16.823Z,19.91
2019-02-23T06:55:45.212Z,19.90
2019-02-23T06:58:13.698Z,19.85
2019-02-23T07:00:42.070Z,19.88
2019-02-23T07:03:10.452Z,19.89
2019-02-23T07:05:38.941Z,19.87
2019-02-23T07:08:07.416Z,19.88
2019-02-23T07:10:35.803Z,19.87
2019-02-23T07:13:04.178Z,19.87
2019-02-23T07:15:33.536Z,19.83
2019-02-23T07:18:01.943Z,19.80
2019-02-23T07:20:30.355Z,19.84
2019-02-23T07:22:58.707Z,19.85
2019-02-23T07:25:27.092Z,19.86
2019-02-23T07:27:55.468Z,19.87
2019-02-23T07:30:23.852Z,19.86
2019-02-23T07:32:52.226Z,19.86
2019-02-23T07:35:20.616Z,19.85
2019-02-23T07:37:49.070Z,19.87
2019-02-23T07:40:17.925Z,19.89
2019-02-23T07:42:46.975Z,19.94
2019-02-23T07:45:15.358Z,19.98
2019-02-23T07:47:43.828Z,19.98
2019-02-23T07:50:14.251Z,20.09
2019-02-23T07:52:42.637Z,20.17
2019-02-23T07:55:11.097Z,20.23
2019-02-23T07:57:39.475Z,20.26
2019-02-23T08:00:12.875Z,20.33
2019-02-23T08:02:41.258Z,20.35
2019-02-23T08:05:10.372Z,20.38
2019-02-23T08:07:39.917Z,20.40
2019-02-23T08:10:10.522Z,20.44
2019-02-23T08:12:38.906Z,20.47
2019-02-23T08:15:10.011Z,20.46
2019-02-23T08:17:38.504Z,20.53
2019-02-23T08:20:09.628Z,20.57
2019-02-23T08:22:38.016Z,20.60
2019-02-23T08:25:09.130Z,20.62
2019-02-23T08:27:37.528Z,20.65
2019-02-23T08:30:09.214Z,20.70
2019-02-23T08:32:37.987Z,20.76
2019-02-23T08:35:07.706Z,20.78
2019-02-23T08:37:36.095Z,20.83
2019-02-23T08:40:07.259Z,20.85
2019-02-23T08:42:35.705Z,20.85
2019-02-23T08:45:04.984Z,20.89
2019-02-23T08:47:34.277Z,20.94
2019-02-23T08:50:02.651Z,20.98
2019-02-23T08:52:31.027Z,21.03
2019-02-23T08:54:59.413Z,21.06
2019-02-23T08:57:27.795Z,21.10
2019-02-23T08:59:56.172Z,21.14
2019-02-23T09:02:24.548Z,21.14
2019-02-23T09:04:52.938Z,21.24
2019-02-23T09:07:21.453Z,21.30
2019-02-23T09:09:49.846Z,21.33
2019-02-23T09:12:18.224Z,21.39
2019-02-23T09:14:46.696Z,21.46
2019-02-23T09:17:15.080Z,21.51
2019-02-23T09:19:43.464Z,21.57
2019-02-23T09:22:11.897Z,21.60
2019-02-23T09:24:40.376Z,21.64
2019-02-23T09:27:08.761Z,21.66
2019-02-23T09:29:37.144Z,21.70
2019-02-23T09:32:05.531Z,21.75
2019-02-23T09:34:34.634Z,21.78
2019-02-23T09:37:03.087Z,21.81
2019-02-23T09:39:31.467Z,21.85
2019-02-23T09:42:07.216Z,21.89
2019-02-23T09:44:29.947Z,21.94
2019-02-23T09:46:58.325Z,21.97
2019-02-23T09:49:26.706Z,21.97
2019-02-23T09:51:55.078Z,22.05
2019-02-23T09:54:23.466Z,22.11
2019-02-23T09:56:51.863Z,22.13
2019-02-23T09:59:20.239Z,22.15
2019-02-23T10:01:48.614Z,22.19
2019-02-23T10:04:17.003Z,22.22
2019-02-23T10:06:45.387Z,22.24
2019-02-23T10:09:13.772Z,22.28
2019-02-23T10:11:42.169Z,22.29
2019-02-23T10:14:10.653Z,22.24
2019-02-23T10:16:39.032Z,22.19
2019-02-23T10:19:07.467Z,22.18
2019-02-23T10:21:35.859Z,22.17
2019-02-23T10:24:04.908Z,22.17
2019-02-23T10:26:33.299Z,22.17
2019-02-23T10:29:01.676Z,22.18
2019-02-23T10:31:30.089Z,22.19
2019-02-23T10:33:58.468Z,22.21
2019-02-23T10:36:26.856Z,22.20
2019-02-23T10:41:16.042Z,22.25
2019-02-23T10:43:44.423Z,22.17
2019-02-23T10:46:12.803Z,22.15
2019-02-23T10:48:41.175Z,22.12
2019-02-23T10:51:09.564Z,22.10
2019-02-23T10:53:37.944Z,22.09
2019-02-23T10:56:06.331Z,22.09
2019-02-23T10:58:35.133Z,22.12
2019-02-23T11:01:03.689Z,22.12
2019-02-23T11:03:32.066Z,22.15
2019-02-23T11:06:00.526Z,22.17
2019-02-23T11:08:28.907Z,22.21
2019-02-23T11:10:57.299Z,22.25
2019-02-23T11:13:25.684Z,22.29
2019-02-23T11:15:54.076Z,22.36
2019-02-23T11:18:22.456Z,22.40
2019-02-23T11:20:50.891Z,22.43
2019-02-23T11:23:19.332Z,22.46
2019-02-23T11:25:47.755Z,22.50
2019-02-23T11:28:16.246Z,22.52
2019-02-23T11:30:44.622Z,22.53
2019-02-23T11:33:13.011Z,22.57
2019-02-23T11:35:41.495Z,22.61
2019-02-23T11:38:09.878Z,22.66
2019-02-23T11:40:38.255Z,22.64
2019-02-23T11:43:06.649Z,22.62
2019-02-23T11:45:35.440Z,22.67
2019-02-23T11:48:03.837Z,22.70
2019-02-23T11:50:32.220Z,22.74
2019-02-23T11:53:00.616Z,22.77
2019-02-23T11:55:28.992Z,22.79
2019-02-23T11:57:57.408Z,22.80
2019-02-23T12:00:25.791Z,22.80
2019-02-23T12:02:54.179Z,22.79
2019-02-23T12:05:22.563Z,22.80
2019-02-23T12:07:50.943Z,22.79
2019-02-23T12:10:19.319Z,22.80
2019-02-23T12:12:47.707Z,22.83
2019-02-23T12:15:16.162Z,22.82
2019-02-23T12:17:44.549Z,22.78
2019-02-23T12:20:12.991Z,22.76
2019-02-23T12:22:41.381Z,22.75
2019-02-23T12:25:12.961Z,22.75
2019-02-23T12:27:40.147Z,22.78
2019-02-23T12:30:10.901Z,22.76
2019-02-23T12:32:39.308Z,22.74
2019-02-23T12:35:10.099Z,22.75
2019-02-23T12:37:38.496Z,22.74
2019-02-23T12:40:08.412Z,22.74
2019-02-23T12:42:36.863Z,22.74
2019-02-23T12:45:11.235Z,22.73
2019-02-23T12:47:39.631Z,22.72
2019-02-23T12:50:11.062Z,22.72
2019-02-23T12:52:39.448Z,22.71
2019-02-23T12:55:11.748Z,22.71
2019-02-23T12:57:40.139Z,22.68
2019-02-23T13:00:12.104Z,22.68
2019-02-23T13:02:40.564Z,22.66
2019-02-23T13:05:09.320Z,22.63
2019-02-23T13:07:37.706Z,22.63
2019-02-23T13:10:11.348Z,22.62
2019-02-23T13:12:54.290Z,22.61
2019-02-23T13:15:31.507Z,22.60
2019-02-23T13:18:28.982Z,22.60
2019-02-23T13:21:19.869Z,22.58
2019-02-23T13:24:14.731Z,22.54
2019-02-23T13:26:51.996Z,22.50
2019-02-23T13:29:29.410Z,22.46
2019-02-23T13:32:00.895Z,22.44
2019-02-23T13:34:56.708Z,22.42
2019-02-23T13:37:30.849Z,22.37
2019-02-23T13:40:11.244Z,22.35
2019-02-23T13:43:05.373Z,22.34
2019-02-23T13:45:58.236Z,22.29
2019-02-23T13:48:32.650Z,22.29
2019-02-23T13:51:13.250Z,22.25
2019-02-23T13:53:53.142Z,22.21
2019-02-23T13:56:49.768Z,22.20
2019-02-23T13:59:43.545Z,22.19
2019-02-23T14:02:31.256Z,22.16
2019-02-23T14:05:17.829Z,22.16
2019-02-23T14:08:12.235Z,22.16
2019-02-23T14:11:06.191Z,22.15
2019-02-23T14:13:37.632Z,22.14
2019-02-23T14:16:24.546Z,22.12
2019-02-23T14:18:55.977Z,22.09
2019-02-23T14:21:45.523Z,22.08
2019-02-23T14:24:55.867Z,22.08
2019-02-23T14:27:48.478Z,22.07
2019-02-23T14:30:22.805Z,22.05
2019-02-23T14:33:06.389Z,22.04
2019-02-23T14:35:37.817Z,22.03
2019-02-23T14:38:29.014Z,21.99
2019-02-23T14:41:09.154Z,21.97
2019-02-23T14:43:58.788Z,21.97
2019-02-23T14:46:38.809Z,21.95
2019-02-23T14:49:21.933Z,21.94
2019-02-23T14:51:53.425Z,21.91
2019-02-23T14:54:39.910Z,21.88
2019-02-23T14:57:20.103Z,21.87
2019-02-23T14:59:51.524Z,21.82
2019-02-23T15:02:42.569Z,21.82
2019-02-23T15:05:29.279Z,21.81
2019-02-23T15:08:33.642Z,21.81
2019-02-23T15:11:21.458Z,21.81
2019-02-23T15:14:10.805Z,21.75
2019-02-23T15:17:04.887Z,21.76
2019-02-23T15:20:07.908Z,21.74
2019-02-23T15:22:57.977Z,21.74
2019-02-23T15:25:35.368Z,21.71
2019-02-23T15:28:36.010Z,21.68
2019-02-23T15:31:15.391Z,21.67
2019-02-23T15:33:55.671Z,21.66
2019-02-23T15:36:39.248Z,21.65
2019-02-23T15:39:16.630Z,21.64
2019-02-23T15:42:06.248Z,21.61
2019-02-23T15:44:46.472Z,21.62
2019-02-23T15:47:34.859Z,21.59
2019-02-23T15:50:13.963Z,21.58
2019-02-23T15:52:33.552Z,21.56
2019-02-23T15:55:01.905Z,21.56
2019-02-23T15:57:30.289Z,21.55
2019-02-23T15:59:58.689Z,21.54
2019-02-23T16:02:27.065Z,21.51
2019-02-23T16:04:55.441Z,21.51
2019-02-23T16:07:23.826Z,21.53
2019-02-23T16:09:52.271Z,21.52
2019-02-23T16:12:20.634Z,21.51
2019-02-23T16:14:49.000Z,21.50
2019-02-23T16:17:17.388Z,21.48
2019-02-23T16:19:45.764Z,21.48
2019-02-23T16:22:14.146Z,21.48
2019-02-23T16:24:42.528Z,21.47
2019-02-23T16:27:10.915Z,21.43
2019-02-23T16:29:39.302Z,21.42
2019-02-23T16:32:07.688Z,21.38
2019-02-23T16:34:36.063Z,21.38
2019-02-23T16:37:04.454Z,21.36
2019-02-23T16:39:32.884Z,21.34
2019-02-23T16:42:01.272Z,21.33
2019-02-23T16:44:29.657Z,21.33
2019-02-23T16:46:58.039Z,21.35
2019-02-23T16:49:26.421Z,21.34
2019-02-23T16:51:54.802Z,21.31
2019-02-23T16:54:23.269Z,21.30
2019-02-23T16:56:51.647Z,21.30
2019-02-23T16:59:20.029Z,21.28
2019-02-23T17:01:48.403Z,21.26
2019-02-23T17:04:16.890Z,21.26
2019-02-23T17:06:45.353Z,21.24
2019-02-23T17:09:13.659Z,21.23
2019-02-23T17:11:42.038Z,21.22
2019-02-23T17:14:10.419Z,21.12
2019-02-23T17:16:38.798Z,21.19
2019-02-23T17:19:07.940Z,21.17
2019-02-23T17:21:36.340Z,21.14
2019-02-23T17:24:04.835Z,21.14
2019-02-23T17:26:36.532Z,21.14
2019-02-23T17:29:03.326Z,21.13
2019-02-23T17:31:31.723Z,21.11
2019-02-23T17:34:00.199Z,21.09
2019-02-23T17:36:28.588Z,21.08
2019-02-23T17:38:56.966Z,21.03
2019-02-23T17:41:25.375Z,21.02
2019-02-23T17:43:54.208Z,21.03
2019-02-23T17:46:22.675Z,21.02
2019-02-23T17:48:51.061Z,21.02
2019-02-23T17:51:19.444Z,21.02
2019-02-23T17:53:47.827Z,21.00
2019-02-23T17:56:16.202Z,20.99
2019-02-23T17:58:44.593Z,20.97
2019-02-23T18:01:12.967Z,20.96
2019-02-23T18:03:41.351Z,20.95
2019-02-23T18:06:09.726Z,20.94
2019-02-23T18:08:38.243Z,20.92
2019-02-23T18:11:06.619Z,20.92
2019-02-23T18:13:35.073Z,20.89
2019-02-23T18:16:03.456Z,20.89
2019-02-23T18:18:31.844Z,20.89
2019-02-23T18:21:00.297Z,20.88
2019-02-23T18:23:28.711Z,20.86
2019-02-23T18:25:57.088Z,20.86
2019-02-23T18:28:25.471Z,20.85
2019-02-23T18:30:53.846Z,20.82
2019-02-23T18:33:22.226Z,20.78
2019-02-23T18:35:50.614Z,20.75
2019-02-23T18:38:18.998Z,20.73
2019-02-23T18:40:47.386Z,20.71
2019-02-23T18:43:15.761Z,20.70
2019-02-23T18:45:47.341Z,20.66
2019-02-23T18:48:14.256Z,20.66
2019-02-23T18:50:42.660Z,20.66
2019-02-23T18:53:11.061Z,20.65
2019-02-23T18:55:41.307Z,20.63
2019-02-23T18:58:09.689Z,20.63
2019-02-23T19:00:38.646Z,20.63
2019-02-23T19:03:07.024Z,20.56
2019-02-23T19:05:35.431Z,20.52
2019-02-23T19:08:03.895Z,20.52
2019-02-23T19:10:32.383Z,20.52
2019-02-23T19:13:00.759Z,20.52
2019-02-23T19:15:29.146Z,20.51
2019-02-23T19:17:57.548Z,20.53
2019-02-23T19:20:25.937Z,20.54
2019-02-23T19:22:54.316Z,20.53
2019-02-23T19:25:22.708Z,20.52
2019-02-23T19:27:51.160Z,20.53
2019-02-23T19:30:19.822Z,20.51
2019-02-23T19:32:48.208Z,20.50
2019-02-23T19:35:16.603Z,20.45
2019-02-23T19:37:45.021Z,20.43
2019-02-23T19:40:13.412Z,20.44
2019-02-23T19:42:41.793Z,20.46
2019-02-23T19:45:11.748Z,20.46
2019-02-23T19:47:41.925Z,20.46
2019-02-23T19:50:13.549Z,20.44
2019-02-23T19:52:41.941Z,20.46
2019-02-23T19:55:13.673Z,20.42
2019-02-23T19:57:42.053Z,20.39
2019-02-23T20:00:10.717Z,20.40
2019-02-23T20:02:39.268Z,20.41
2019-02-23T20:05:10.106Z,20.42
2019-02-23T20:07:39.205Z,20.41
2019-02-23T20:10:09.837Z,20.41
2019-02-23T20:12:39.201Z,20.37
2019-02-23T20:15:09.727Z,20.36
2019-02-23T20:17:38.105Z,20.38
2019-02-23T20:20:07.540Z,20.38
2019-02-23T20:22:35.939Z,20.37
2019-02-23T20:25:05.834Z,20.37
2019-02-23T20:27:34.228Z,20.36
2019-02-23T20:30:02.717Z,20.36
2019-02-23T20:32:31.738Z,20.36
2019-02-23T20:35:00.263Z,20.36
2019-02-23T20:37:28.583Z,20.35
2019-02-23T20:39:56.973Z,20.36
2019-02-23T20:42:25.391Z,20.36
2019-02-23T20:44:53.807Z,20.34
2019-02-23T20:47:22.206Z,20.34
2019-02-23T20:49:50.677Z,20.32
2019-02-23T20:52:19.152Z,20.32
2019-02-23T20:54:47.530Z,20.31
2019-02-23T20:57:16.010Z,20.31
2019-02-23T20:59:44.387Z,20.30
2019-02-23T21:02:12.847Z,20.29
2019-02-23T21:04:41.299Z,20.29
2019-02-23T21:07:09.687Z,20.29
2019-02-23T21:09:38.135Z,20.26
2019-02-23T21:12:06.553Z,20.28
2019-02-23T21:14:34.918Z,20.24
2019-02-23T21:17:03.312Z,20.23
2019-02-23T21:19:31.696Z,20.27
2019-02-23T21:22:00.085Z,20.25
2019-02-23T21:24:28.465Z,20.23
2019-02-23T21:26:56.846Z,20.21
2019-02-23T21:29:25.427Z,20.19
2019-02-23T21:31:54.843Z,20.17
2019-02-23T21:34:23.225Z,20.17
2019-02-23T21:36:51.617Z,20.14
2019-02-23T21:39:19.993Z,20.11
2019-02-23T21:41:48.380Z,20.10
2019-02-23T21:44:16.756Z,20.11
2019-02-23T21:46:45.226Z,20.09
2019-02-23T21:49:13.603Z,20.08
2019-02-23T21:51:42.088Z,20.05
2019-02-23T21:54:11.056Z,20.06
2019-02-23T21:56:39.976Z,20.04
2019-02-23T21:59:08.442Z,20.02
2019-02-23T22:01:36.934Z,20.01
2019-02-23T22:04:05.473Z,19.94
2019-02-23T22:06:33.906Z,19.96
2019-02-23T22:09:02.295Z,19.92
2019-02-23T22:11:30.664Z,19.94
2019-02-23T22:13:59.111Z,19.96
2019-02-23T22:16:27.508Z,19.95
2019-02-23T22:18:55.975Z,19.96
2019-02-23T22:21:24.390Z,19.95
2019-02-23T22:23:52.773Z,19.96
2019-02-23T22:26:21.175Z,19.96
2019-02-23T22:28:49.557Z,19.96
2019-02-23T22:31:17.940Z,19.93
2019-02-23T22:33:46.481Z,19.94
2019-02-23T22:36:14.945Z,19.96
2019-02-23T22:38:43.413Z,19.96
2019-02-23T22:41:11.807Z,19.95
2019-02-23T22:43:40.295Z,19.96
2019-02-23T22:46:08.678Z,19.96
2019-02-23T22:48:37.050Z,19.97
2019-02-23T22:51:05.440Z,19.96
2019-02-23T22:53:33.815Z,19.95
2019-02-23T22:56:02.205Z,19.94
2019-02-23T22:58:30.599Z,19.96
2019-02-23T23:01:00.892Z,19.98
2019-02-23T23:03:29.268Z,19.98
2019-02-23T23:05:57.644Z,19.97
2019-02-23T23:08:26.027Z,19.98
2019-02-23T23:10:54.407Z,19.99
2019-02-23T23:13:22.873Z,19.99
2019-02-23T23:15:51.341Z,20.00
2019-02-23T23:18:19.728Z,20.01
2019-02-23T23:20:48.118Z,20.02
2019-02-23T23:23:16.504Z,20.02
2019-02-23T23:25:44.963Z,20.02
2019-02-23T23:28:13.351Z,20.03
2019-02-23T23:30:41.822Z,20.02
2019-02-23T23:33:10.654Z,20.03
2019-02-23T23:35:39.029Z,20.02
2019-02-23T23:38:07.479Z,20.03
2019-02-23T23:40:35.848Z,20.02
2019-02-23T23:43:04.232Z,20.01
2019-02-23T23:45:32.623Z,20.01
2019-02-23T23:48:01.011Z,20.00
2019-02-23T23:50:29.387Z,19.99
2019-02-23T23:52:57.850Z,19.98
2019-02-23T23:55:26.318Z,19.99
2019-02-23T23:57:58.241Z,19.99
